Mostonga I — YT-2185 — position and weather

sailwx.info

Track history (hours):
 
Tides and Currents Weather Stations Pressure Air Temp Water Temp Dewpoint Dewpoint Depression Visibility Wind Speed Wind Dir Waves Ship Positions

Mostonga I

Last reported at 2017-Oct-19 13:48 UTC. Time now 2017-Oct-22 04:57 UTC.
Position N 45°14' E 020°18'.

Length 70 m; draft 2.2 m.

Type: Cargo ship. MMSI: 279202185.

Date/timePositionNaut miles runAvg speedWind from/ knotsBaromVisibWave heightAir tempDewpointWater temp
2017-Oct-19 13:48N 45°14' E 020°18'1 3.0
2017-Oct-19 13:31N 45°13' E 020°19'2 3.0
2017-Oct-19 13:01N 45°12' E 020°19'2 2.7
2017-Oct-19 12:25N 45°11' E 020°17'1 2.7
2017-Oct-19 12:00N 45°10' E 020°17'1 3.0
2017-Oct-19 11:30N 45°08' E 020°17'1 2.0
2017-Oct-19 11:00N 45°07' E 020°17'1 2.5
2017-Oct-19 10:30N 45°06' E 020°18'1 2.2
2017-Oct-19 10:00N 45°05' E 020°19'1 2.4
2017-Oct-19 09:30N 45°04' E 020°20'1 2.3
2017-Oct-19 09:01N 45°03' E 020°21'1 2.1
2017-Oct-19 08:31N 45°02' E 020°22'1 2.3
2017-Oct-19 08:01N 45°01' E 020°22'1 2.1
2017-Oct-19 07:31N 45°00' E 020°21'1 2.4
2017-Oct-19 07:01N 44°60' E 020°20'1 2.5
2017-Oct-19 06:30N 44°59' E 020°18'1 2.5
2017-Oct-19 06:00N 44°58' E 020°17'1 2.2
2017-Oct-19 05:31N 44°57' E 020°18'0 0.0
2017-Oct-19 05:01N 44°57' E 020°18'0 0.0
2017-Oct-19 04:30N 44°57' E 020°18'0 0.0
2017-Oct-19 04:01N 44°57' E 020°18'0 0.0
2017-Oct-19 03:31N 44°57' E 020°18'0 0.1
2017-Oct-19 03:00N 44°57' E 020°18'0 0.0
2017-Oct-19 02:31N 44°57' E 020°18'0 0.0
2017-Oct-19 02:01N 44°57' E 020°18'0 0.0
2017-Oct-19 01:31N 44°57' E 020°18'0 0.0
2017-Oct-19 01:01N 44°57' E 020°18'0 0.0
2017-Oct-19 00:31N 44°57' E 020°18'0 0.0
2017-Oct-19 00:01N 44°57' E 020°18'0 0.0
2017-Oct-18 23:31N 44°57' E 020°18'0 0.0
2017-Oct-18 23:01N 44°57' E 020°18'0 0.0
2017-Oct-18 22:31N 44°57' E 020°18'0 0.0
2017-Oct-18 22:01N 44°57' E 020°18'0 0.0
2017-Oct-18 21:31N 44°57' E 020°18'0 0.0
2017-Oct-18 21:01N 44°57' E 020°18'0 0.0
2017-Oct-18 20:31N 44°57' E 020°18'0 0.0
2017-Oct-18 20:01N 44°57' E 020°18'0 0.0
2017-Oct-18 19:31N 44°57' E 020°18'0 0.0
2017-Oct-18 19:01N 44°57' E 020°18'0 0.0
2017-Oct-18 18:31N 44°57' E 020°18'0 0.0
2017-Oct-18 18:01N 44°57' E 020°18'1 1.8
2017-Oct-18 17:31N 44°56' E 020°18'1 2.6
2017-Oct-18 17:01N 44°55' E 020°20'1 2.4
2017-Oct-18 16:30N 44°54' E 020°20'1 2.6
2017-Oct-18 16:01N 44°53' E 020°21'1 2.6
2017-Oct-18 15:31N 44°52' E 020°22'1 2.4
2017-Oct-18 15:00N 44°52' E 020°24'3 2.6
2017-Oct-18 14:01N 44°50' E 020°27'1 2.7
2017-Oct-18 13:30N 44°50' E 020°29'1 1.1
2017-Oct-18 13:00N 44°50' E 020°30'0 0.0
2017-Oct-18 12:30N 44°50' E 020°30'0 0.0
2017-Oct-18 12:01N 44°50' E 020°30'0 0.3
2017-Oct-18 11:31N 44°50' E 020°30'1 1.2
2017-Oct-18 11:00N 44°49' E 020°30'0 0.0
2017-Oct-18 10:31N 44°49' E 020°30'0 0.0
2017-Oct-18 10:01N 44°49' E 020°30'0 0.0
2017-Oct-18 09:31N 44°49' E 020°30'0 0.0
2017-Oct-18 09:00N 44°49' E 020°30'0 0.0
2017-Oct-18 08:31N 44°49' E 020°30'0 0.0
2017-Oct-18 08:01N 44°49' E 020°30'0 0.0
2017-Oct-18 07:31N 44°49' E 020°30'0 0.0
2017-Oct-18 07:01N 44°49' E 020°30'0 0.0
2017-Oct-18 06:31N 44°49' E 020°30'0 0.0
2017-Oct-18 06:01N 44°49' E 020°30'0 0.0
2017-Oct-18 05:30N 44°49' E 020°30'0 0.0
2017-Oct-18 05:01N 44°49' E 020°30'0 0.0
2017-Oct-18 04:30N 44°49' E 020°30'0 0.0
2017-Oct-18 04:01N 44°49' E 020°30'0 0.0
2017-Oct-18 03:31N 44°49' E 020°30'0 0.0
2017-Oct-18 03:00N 44°49' E 020°30'0 0.0
2017-Oct-18 02:31N 44°49' E 020°30'0 0.0
2017-Oct-18 02:01N 44°49' E 020°30'0 0.0
2017-Oct-18 01:30N 44°49' E 020°30'0 0.0
2017-Oct-18 01:01N 44°49' E 020°30'0 0.0
2017-Oct-18 00:31N 44°49' E 020°30'0 0.0
2017-Oct-18 00:01N 44°49' E 020°30'0 0.0
2017-Oct-17 23:31N 44°49' E 020°30'0 0.0
2017-Oct-17 23:01N 44°49' E 020°30'0 0.0
2017-Oct-17 22:31N 44°49' E 020°30'0 0.0
2017-Oct-17 22:01N 44°49' E 020°30'0 0.0
2017-Oct-17 21:30N 44°49' E 020°30'0 0.0
2017-Oct-17 21:00N 44°49' E 020°30'0 0.0
2017-Oct-17 20:30N 44°49' E 020°30'0 0.0
2017-Oct-17 20:01N 44°49' E 020°30'0 0.0
2017-Oct-17 19:31N 44°49' E 020°30'0 0.0
2017-Oct-17 19:01N 44°49' E 020°30'0 0.0
2017-Oct-17 18:30N 44°49' E 020°30'0 0.0
2017-Oct-17 18:01N 44°49' E 020°30'0 0.0
2017-Oct-17 17:30N 44°49' E 020°30'0 0.0
2017-Oct-17 17:00N 44°49' E 020°30'0 0.0
2017-Oct-17 16:30N 44°49' E 020°30'0 0.0
2017-Oct-17 16:00N 44°49' E 020°30'0 0.0
2017-Oct-17 15:30N 44°49' E 020°30'0 0.0
2017-Oct-17 15:00N 44°49' E 020°30'0 0.0
2017-Oct-17 14:30N 44°49' E 020°30'0 0.0
2017-Oct-17 14:01N 44°49' E 020°30'0 0.0
2017-Oct-17 13:30N 44°49' E 020°30'0 0.0
2017-Oct-17 13:00N 44°49' E 020°30'0 0.0
2017-Oct-17 12:30N 44°49' E 020°30'0 0.0
2017-Oct-17 11:36N 44°49' E 020°30'0 0.0
2017-Oct-17 11:30N 44°49' E 020°30'0 0.0
2017-Oct-17 11:01N 44°49' E 020°30'0 0.0
2017-Oct-17 10:30N 44°49' E 020°30'0 0.0
2017-Oct-17 10:00N 44°49' E 020°30'0 0.0
2017-Oct-17 09:30N 44°49' E 020°30'0 0.0
2017-Oct-17 09:00N 44°49' E 020°30'0 0.0
2017-Oct-17 08:31N 44°49' E 020°30'0 0.0
2017-Oct-17 08:01N 44°49' E 020°30'0 0.0
2017-Oct-17 07:31N 44°49' E 020°30'0 0.0
2017-Oct-17 07:01N 44°49' E 020°30'0 0.0
2017-Oct-17 06:31N 44°49' E 020°30'0 0.0
2017-Oct-17 06:01N 44°49' E 020°30'0 0.0
2017-Oct-17 05:31N 44°49' E 020°30'0 0.0
2017-Oct-17 05:01N 44°49' E 020°30'0 0.0
2017-Oct-17 04:31N 44°49' E 020°30'0 0.0
2017-Oct-17 04:00N 44°49' E 020°30'0 0.0
2017-Oct-17 03:30N 44°49' E 020°30'0 0.0
2017-Oct-17 03:00N 44°49' E 020°30'0 0.0
2017-Oct-17 02:30N 44°49' E 020°30'0 0.0
2017-Oct-17 02:01N 44°49' E 020°30'0 0.0
2017-Oct-17 01:30N 44°49' E 020°30'0 0.0
2017-Oct-17 01:00N 44°49' E 020°30'0 0.0
2017-Oct-17 00:31N 44°49' E 020°30'0 0.0
2017-Oct-17 00:01N 44°49' E 020°30'0 0.0
2017-Oct-16 23:30N 44°49' E 020°30'0 0.0
2017-Oct-16 23:00N 44°49' E 020°30'0 0.0
2017-Oct-16 22:30N 44°49' E 020°30'0 0.0
2017-Oct-16 22:01N 44°49' E 020°30'0 0.0
2017-Oct-16 21:30N 44°49' E 020°30'0 0.0
2017-Oct-16 21:00N 44°49' E 020°30'0 0.0
2017-Oct-16 20:30N 44°49' E 020°30'0 0.0
2017-Oct-16 20:00N 44°49' E 020°30'0 0.0
2017-Oct-16 19:30N 44°49' E 020°30'0 0.0
2017-Oct-16 19:00N 44°49' E 020°30'0 0.0
2017-Oct-16 18:30N 44°49' E 020°30'0 0.0
2017-Oct-16 18:01N 44°49' E 020°30'0 0.0
2017-Oct-16 17:30N 44°49' E 020°30'0 0.0
2017-Oct-16 17:01N 44°49' E 020°30'0 0.0
2017-Oct-16 16:30N 44°49' E 020°30'0 0.0
2017-Oct-16 16:00N 44°49' E 020°30'0 0.0
2017-Oct-16 15:30N 44°49' E 020°30'0 0.0
2017-Oct-16 15:00N 44°49' E 020°30'0 0.0
2017-Oct-16 14:00N 44°49' E 020°30'0 0.0
2017-Oct-16 13:31N 44°49' E 020°30'0 0.0
2017-Oct-16 13:00N 44°49' E 020°30'0 0.0
2017-Oct-16 12:30N 44°49' E 020°30'0 0.0
2017-Oct-16 11:58N 44°49' E 020°30'0 0.0
2017-Oct-16 11:30N 44°49' E 020°30'0 0.0
2017-Oct-16 11:00N 44°49' E 020°30'0 0.0
2017-Oct-16 10:30N 44°49' E 020°30'0 0.0
2017-Oct-16 10:01N 44°49' E 020°30'0 0.0
2017-Oct-16 09:30N 44°49' E 020°30'0 0.0
2017-Oct-16 09:00N 44°49' E 020°30'0 0.0
2017-Oct-16 08:31N 44°49' E 020°30'0 0.0
2017-Oct-16 08:00N 44°49' E 020°30'0 0.0
2017-Oct-16 07:30N 44°49' E 020°30'0 0.0
2017-Oct-16 07:00N 44°49' E 020°30'0 0.0
2017-Oct-16 06:31N 44°49' E 020°30'0 0.0
2017-Oct-16 06:00N 44°49' E 020°30'0 0.0
2017-Oct-16 05:31N 44°49' E 020°30'0 0.0
2017-Oct-16 05:01N 44°49' E 020°30'0 0.0
2017-Oct-16 04:31N 44°49' E 020°30'0 0.0
2017-Oct-16 04:01N 44°49' E 020°30'0 0.0
2017-Oct-16 03:31N 44°49' E 020°30'0 0.0
2017-Oct-16 03:00N 44°49' E 020°30'0 0.0
2017-Oct-16 02:31N 44°49' E 020°30'0 0.0
2017-Oct-16 02:00N 44°49' E 020°30'0 0.0
2017-Oct-16 01:30N 44°49' E 020°30'0 0.0
2017-Oct-16 01:00N 44°49' E 020°30'0 0.0
2017-Oct-16 00:30N 44°49' E 020°30'0 0.0
2017-Oct-16 00:01N 44°49' E 020°30'0 0.0
2017-Oct-15 23:30N 44°49' E 020°30'0 0.0
2017-Oct-15 23:00N 44°49' E 020°30'0 0.0
2017-Oct-15 22:31N 44°49' E 020°30'0 0.0
2017-Oct-15 22:00N 44°49' E 020°30'0 0.0
2017-Oct-15 21:30N 44°49' E 020°30'0 0.0
2017-Oct-15 21:01N 44°49' E 020°30'1 1.5
2017-Oct-15 20:31N 44°50' E 020°32'1 2.6
2017-Oct-15 20:01N 44°50' E 020°33'1 2.8
2017-Oct-15 19:30N 44°51' E 020°35'1 2.7
2017-Oct-15 19:00N 44°51' E 020°37'1 2.7
2017-Oct-15 18:31N 44°50' E 020°38'1 2.7
2017-Oct-15 18:00N 44°49' E 020°39'1 3.0
2017-Oct-15 17:30N 44°48' E 020°38'1 2.9
2017-Oct-15 17:00N 44°46' E 020°38'1 2.7
2017-Oct-15 16:30N 44°45' E 020°39'1 2.9
2017-Oct-15 16:01N 44°44' E 020°40'1 3.0
2017-Oct-15 15:31N 44°43' E 020°41'1 2.9
2017-Oct-15 15:01N 44°42' E 020°43'3 2.8
2017-Oct-15 14:00N 44°40' E 020°46'1 2.9
2017-Oct-15 13:30N 44°40' E 020°48'1 2.8
2017-Oct-15 13:00N 44°40' E 020°49'1 3.0
2017-Oct-15 12:30N 44°40' E 020°52'1 2.8
2017-Oct-15 12:01N 44°40' E 020°54'1 2.8
2017-Oct-15 11:30N 44°40' E 020°55'1 2.9
2017-Oct-15 11:01N 44°42' E 020°57'1 2.9
2017-Oct-15 10:31N 44°43' E 020°58'1 2.8
2017-Oct-15 10:01N 44°43' E 021°00'1 2.8
2017-Oct-15 09:31N 44°43' E 021°02'1 2.9
2017-Oct-15 09:00N 44°43' E 021°04'1 2.9
2017-Oct-15 08:30N 44°43' E 021°06'1 2.8
2017-Oct-15 08:01N 44°44' E 021°08'2 3.0
2017-Oct-15 07:30N 44°45' E 021°10'1 1.6
2017-Oct-15 07:00N 44°46' E 021°10'0 0.0
2017-Oct-15 06:30N 44°46' E 021°10'0 0.0
2017-Oct-15 06:00N 44°46' E 021°10'0 0.0
2017-Oct-15 05:26N 44°46' E 021°10'0 0.0
2017-Oct-15 05:00N 44°46' E 021°10'0 0.0
2017-Oct-15 04:30N 44°46' E 021°10'0 0.0
2017-Oct-14 20:03N 44°46' E 021°10'0 0.0
2017-Oct-14 20:00N 44°46' E 021°10'1 1.0
2017-Oct-14 19:31N 44°45' E 021°10'2 4.9
2017-Oct-14 19:01N 44°44' E 021°07'3 5.1
2017-Oct-14 18:31N 44°43' E 021°04'3 5.2
2017-Oct-14 18:01N 44°43' E 020°60'3 5.2
2017-Oct-14 17:31N 44°42' E 020°57'2 4.1
2017-Oct-14 17:00N 44°40' E 020°55'0 0.0
2017-Oct-14 16:30N 44°40' E 020°55'0 0.0
2017-Oct-14 16:00N 44°40' E 020°55'1 2.5
2017-Oct-14 15:31N 44°40' E 020°53'3 5.6
2017-Oct-14 15:01N 44°39' E 020°50'3 5.1
2017-Oct-14 14:31N 44°40' E 020°46'2 5.0
2017-Oct-14 14:01N 44°41' E 020°43'3 5.0
2017-Oct-14 13:31N 44°43' E 020°41'3 5.0
2017-Oct-14 13:00N 44°45' E 020°38'3 5.0
2017-Oct-14 12:30N 44°47' E 020°38'3 5.0
2017-Oct-14 12:01N 44°50' E 020°39'2 4.9
2017-Oct-14 11:30N 44°51' E 020°36'3 5.1
2017-Oct-14 11:00N 44°50' E 020°33'2 5.0
2017-Oct-14 10:31N 44°50' E 020°30'3 5.1
2017-Oct-14 10:01N 44°51' E 020°26'3 5.6
2017-Oct-14 09:30N 44°52' E 020°23'3 5.6
2017-Oct-14 09:01N 44°54' E 020°21'3 5.6
2017-Oct-14 08:30N 44°56' E 020°18'3 5.6
2017-Oct-14 08:00N 44°59' E 020°18'3 5.4
2017-Oct-14 07:30N 45°00' E 020°21'3 5.2
2017-Oct-14 07:00N 45°03' E 020°21'3 5.8
2017-Oct-14 06:30N 45°05' E 020°19'3 5.9
2017-Oct-14 06:00N 45°08' E 020°17'2 4.4
2017-Oct-14 05:30N 45°10' E 020°17'2 4.0
2017-Oct-14 05:00N 45°11' E 020°19'0 0.2
2017-Oct-14 04:30N 45°11' E 020°19'0 0.0
2017-Oct-14 04:01N 45°11' E 020°19'0 0.0
2017-Oct-14 03:30N 45°11' E 020°19'0 0.0
2017-Oct-14 03:01N 45°11' E 020°19'0 0.0
2017-Oct-14 02:30N 45°11' E 020°19'0 0.0
2017-Oct-14 02:00N 45°11' E 020°19'0 0.0
2017-Oct-14 01:30N 45°11' E 020°19'0 0.0
2017-Oct-14 01:00N 45°11' E 020°19'0 0.0
2017-Oct-14 00:31N 45°11' E 020°19'0 0.0
2017-Oct-14 00:01N 45°11' E 020°19'0 0.0
2017-Oct-13 23:31N 45°11' E 020°19'0 0.0
2017-Oct-13 23:00N 45°11' E 020°19'0 0.0
2017-Oct-13 22:31N 45°11' E 020°19'0 0.0
2017-Oct-13 22:01N 45°11' E 020°19'0 0.0
2017-Oct-13 21:30N 45°11' E 020°19'0 0.0
2017-Oct-13 21:01N 45°11' E 020°19'0 0.0
2017-Oct-13 20:30N 45°11' E 020°19'0 0.1
2017-Oct-13 20:01N 45°11' E 020°19'2 4.1
2017-Oct-13 19:29N 45°13' E 020°19'  
2017-Oct-10 12:04N 45°14' E 020°18'0 3.4
2017-Oct-10 11:59N 45°14' E 020°18'2 3.5
2017-Oct-10 11:30N 45°12' E 020°19'2 3.2
2017-Oct-10 11:00N 45°11' E 020°18'1 2.8
2017-Oct-10 10:30N 45°10' E 020°17'2 3.2
2017-Oct-10 10:00N 45°08' E 020°17'1 2.1
2017-Oct-10 09:30N 45°07' E 020°17'1 2.5
2017-Oct-10 09:00N 45°06' E 020°18'1 2.3
2017-Oct-10 08:30N 45°05' E 020°19'1 2.6
2017-Oct-10 08:00N 45°04' E 020°20'1 2.5
2017-Oct-10 07:30N 45°03' E 020°21'1 2.6
2017-Oct-10 07:00N 45°02' E 020°22'1 2.4
2017-Oct-10 06:30N 45°01' E 020°22'1 2.2
2017-Oct-10 06:00N 45°00' E 020°21'1 2.6
2017-Oct-10 05:30N 44°60' E 020°19'1 2.6
2017-Oct-10 05:00N 44°59' E 020°18'1 2.5
2017-Oct-10 04:30N 44°58' E 020°17'1 1.2
2017-Oct-10 04:01N 44°57' E 020°18'0 0.0
2017-Oct-10 03:31N 44°57' E 020°18'0 0.0
2017-Oct-10 03:00N 44°57' E 020°18'0 0.0
2017-Oct-10 02:31N 44°57' E 020°18'0 0.0
2017-Oct-10 02:01N 44°57' E 020°18'0 0.0
2017-Oct-10 01:30N 44°57' E 020°18'0 0.0
2017-Oct-10 01:01N 44°57' E 020°18'0 0.0
2017-Oct-10 00:31N 44°57' E 020°18'0 0.0
2017-Oct-10 00:01N 44°57' E 020°18'0 0.0
2017-Oct-09 23:31N 44°57' E 020°18'0 0.0
2017-Oct-09 23:01N 44°57' E 020°18'0 0.0
2017-Oct-09 22:31N 44°57' E 020°18'0 0.0
2017-Oct-09 22:01N 44°57' E 020°18'0 0.0
2017-Oct-09 21:31N 44°57' E 020°18'0 0.0
2017-Oct-09 21:01N 44°57' E 020°18'0 0.0
2017-Oct-09 20:31N 44°57' E 020°18'0 0.0
2017-Oct-09 20:01N 44°57' E 020°18'0 0.0
2017-Oct-09 19:31N 44°57' E 020°18'1 2.0
2017-Oct-09 19:01N 44°56' E 020°18'1 2.6
2017-Oct-09 18:30N 44°55' E 020°20'1 2.4
2017-Oct-09 18:00N 44°54' E 020°20'1 2.7
2017-Oct-09 17:30N 44°53' E 020°21'1 2.6
2017-Oct-09 17:01N 44°52' E 020°22'1 2.5
2017-Oct-09 16:30N 44°51' E 020°24'1 2.7
2017-Oct-09 16:00N 44°51' E 020°26'1 2.5
2017-Oct-09 15:30N 44°50' E 020°27'1 2.8
2017-Oct-09 15:00N 44°50' E 020°29'1 2.7
2017-Oct-09 14:31N 44°49' E 020°31'0 0.0
2017-Oct-09 14:01N 44°49' E 020°31'  
Track history (hours):
 
Tides and Currents Weather Stations Pressure Air Temp Water Temp Dewpoint Dewpoint Depression Visibility Wind Speed Wind Dir Waves Ship Positions

Mostonga I

Last reported at 2017-Oct-19 13:48 UTC. Time now 2017-Oct-22 04:57 UTC.
Position N 45°14' E 020°18'.

Length 70 m; draft 2.2 m.

Type: Cargo ship. MMSI: 279202185.

Date/timePositionNaut miles runAvg speedWind from/ knotsBaromVisibWave heightAir tempDewpointWater temp
2017-Oct-19 13:48N 45°14' E 020°18'1 3.0
2017-Oct-19 13:31N 45°13' E 020°19'2 3.0
2017-Oct-19 13:01N 45°12' E 020°19'2 2.7
2017-Oct-19 12:25N 45°11' E 020°17'1 2.7
2017-Oct-19 12:00N 45°10' E 020°17'1 3.0
2017-Oct-19 11:30N 45°08' E 020°17'1 2.0
2017-Oct-19 11:00N 45°07' E 020°17'1 2.5
2017-Oct-19 10:30N 45°06' E 020°18'1 2.2
2017-Oct-19 10:00N 45°05' E 020°19'1 2.4
2017-Oct-19 09:30N 45°04' E 020°20'1 2.3
2017-Oct-19 09:01N 45°03' E 020°21'1 2.1
2017-Oct-19 08:31N 45°02' E 020°22'1 2.3
2017-Oct-19 08:01N 45°01' E 020°22'1 2.1
2017-Oct-19 07:31N 45°00' E 020°21'1 2.4
2017-Oct-19 07:01N 44°60' E 020°20'1 2.5
2017-Oct-19 06:30N 44°59' E 020°18'1 2.5
2017-Oct-19 06:00N 44°58' E 020°17'1 2.2
2017-Oct-19 05:31N 44°57' E 020°18'0 0.0
2017-Oct-19 05:01N 44°57' E 020°18'0 0.0
2017-Oct-19 04:30N 44°57' E 020°18'0 0.0
2017-Oct-19 04:01N 44°57' E 020°18'0 0.0
2017-Oct-19 03:31N 44°57' E 020°18'0 0.1
2017-Oct-19 03:00N 44°57' E 020°18'0 0.0
2017-Oct-19 02:31N 44°57' E 020°18'0 0.0
2017-Oct-19 02:01N 44°57' E 020°18'0 0.0
2017-Oct-19 01:31N 44°57' E 020°18'0 0.0
2017-Oct-19 01:01N 44°57' E 020°18'0 0.0
2017-Oct-19 00:31N 44°57' E 020°18'0 0.0
2017-Oct-19 00:01N 44°57' E 020°18'0 0.0
2017-Oct-18 23:31N 44°57' E 020°18'0 0.0
2017-Oct-18 23:01N 44°57' E 020°18'0 0.0
2017-Oct-18 22:31N 44°57' E 020°18'0 0.0
2017-Oct-18 22:01N 44°57' E 020°18'0 0.0
2017-Oct-18 21:31N 44°57' E 020°18'0 0.0
2017-Oct-18 21:01N 44°57' E 020°18'0 0.0
2017-Oct-18 20:31N 44°57' E 020°18'0 0.0
2017-Oct-18 20:01N 44°57' E 020°18'0 0.0
2017-Oct-18 19:31N 44°57' E 020°18'0 0.0
2017-Oct-18 19:01N 44°57' E 020°18'0 0.0
2017-Oct-18 18:31N 44°57' E 020°18'0 0.0
2017-Oct-18 18:01N 44°57' E 020°18'1 1.8
2017-Oct-18 17:31N 44°56' E 020°18'1 2.6
2017-Oct-18 17:01N 44°55' E 020°20'1 2.4
2017-Oct-18 16:30N 44°54' E 020°20'1 2.6
2017-Oct-18 16:01N 44°53' E 020°21'1 2.6
2017-Oct-18 15:31N 44°52' E 020°22'1 2.4
2017-Oct-18 15:00N 44°52' E 020°24'3 2.6
2017-Oct-18 14:01N 44°50' E 020°27'1 2.7
2017-Oct-18 13:30N 44°50' E 020°29'1 1.1
2017-Oct-18 13:00N 44°50' E 020°30'0 0.0
2017-Oct-18 12:30N 44°50' E 020°30'0 0.0
2017-Oct-18 12:01N 44°50' E 020°30'0 0.3
2017-Oct-18 11:31N 44°50' E 020°30'1 1.2
2017-Oct-18 11:00N 44°49' E 020°30'0 0.0
2017-Oct-18 10:31N 44°49' E 020°30'0 0.0
2017-Oct-18 10:01N 44°49' E 020°30'0 0.0
2017-Oct-18 09:31N 44°49' E 020°30'0 0.0
2017-Oct-18 09:00N 44°49' E 020°30'0 0.0
2017-Oct-18 08:31N 44°49' E 020°30'0 0.0
2017-Oct-18 08:01N 44°49' E 020°30'0 0.0
2017-Oct-18 07:31N 44°49' E 020°30'0 0.0
2017-Oct-18 07:01N 44°49' E 020°30'0 0.0
2017-Oct-18 06:31N 44°49' E 020°30'0 0.0
2017-Oct-18 06:01N 44°49' E 020°30'0 0.0
2017-Oct-18 05:30N 44°49' E 020°30'0 0.0
2017-Oct-18 05:01N 44°49' E 020°30'0 0.0
2017-Oct-18 04:30N 44°49' E 020°30'0 0.0
2017-Oct-18 04:01N 44°49' E 020°30'0 0.0
2017-Oct-18 03:31N 44°49' E 020°30'0 0.0
2017-Oct-18 03:00N 44°49' E 020°30'0 0.0
2017-Oct-18 02:31N 44°49' E 020°30'0 0.0
2017-Oct-18 02:01N 44°49' E 020°30'0 0.0
2017-Oct-18 01:30N 44°49' E 020°30'0 0.0
2017-Oct-18 01:01N 44°49' E 020°30'0 0.0
2017-Oct-18 00:31N 44°49' E 020°30'0 0.0
2017-Oct-18 00:01N 44°49' E 020°30'0 0.0
2017-Oct-17 23:31N 44°49' E 020°30'0 0.0
2017-Oct-17 23:01N 44°49' E 020°30'0 0.0
2017-Oct-17 22:31N 44°49' E 020°30'0 0.0
2017-Oct-17 22:01N 44°49' E 020°30'0 0.0
2017-Oct-17 21:30N 44°49' E 020°30'0 0.0
2017-Oct-17 21:00N 44°49' E 020°30'0 0.0
2017-Oct-17 20:30N 44°49' E 020°30'0 0.0
2017-Oct-17 20:01N 44°49' E 020°30'0 0.0
2017-Oct-17 19:31N 44°49' E 020°30'0 0.0
2017-Oct-17 19:01N 44°49' E 020°30'0 0.0
2017-Oct-17 18:30N 44°49' E 020°30'0 0.0
2017-Oct-17 18:01N 44°49' E 020°30'0 0.0
2017-Oct-17 17:30N 44°49' E 020°30'0 0.0
2017-Oct-17 17:00N 44°49' E 020°30'0 0.0
2017-Oct-17 16:30N 44°49' E 020°30'0 0.0
2017-Oct-17 16:00N 44°49' E 020°30'0 0.0
2017-Oct-17 15:30N 44°49' E 020°30'0 0.0
2017-Oct-17 15:00N 44°49' E 020°30'0 0.0
2017-Oct-17 14:30N 44°49' E 020°30'0 0.0
2017-Oct-17 14:01N 44°49' E 020°30'0 0.0
2017-Oct-17 13:30N 44°49' E 020°30'0 0.0
2017-Oct-17 13:00N 44°49' E 020°30'0 0.0
2017-Oct-17 12:30N 44°49' E 020°30'0 0.0
2017-Oct-17 11:36N 44°49' E 020°30'0 0.0
2017-Oct-17 11:30N 44°49' E 020°30'0 0.0
2017-Oct-17 11:01N 44°49' E 020°30'0 0.0
2017-Oct-17 10:30N 44°49' E 020°30'0 0.0
2017-Oct-17 10:00N 44°49' E 020°30'0 0.0
2017-Oct-17 09:30N 44°49' E 020°30'0 0.0
2017-Oct-17 09:00N 44°49' E 020°30'0 0.0
2017-Oct-17 08:31N 44°49' E 020°30'0 0.0
2017-Oct-17 08:01N 44°49' E 020°30'0 0.0
2017-Oct-17 07:31N 44°49' E 020°30'0 0.0
2017-Oct-17 07:01N 44°49' E 020°30'0 0.0
2017-Oct-17 06:31N 44°49' E 020°30'0 0.0
2017-Oct-17 06:01N 44°49' E 020°30'0 0.0
2017-Oct-17 05:31N 44°49' E 020°30'0 0.0
2017-Oct-17 05:01N 44°49' E 020°30'0 0.0
2017-Oct-17 04:31N 44°49' E 020°30'0 0.0
2017-Oct-17 04:00N 44°49' E 020°30'0 0.0
2017-Oct-17 03:30N 44°49' E 020°30'0 0.0
2017-Oct-17 03:00N 44°49' E 020°30'0 0.0
2017-Oct-17 02:30N 44°49' E 020°30'0 0.0
2017-Oct-17 02:01N 44°49' E 020°30'0 0.0
2017-Oct-17 01:30N 44°49' E 020°30'0 0.0
2017-Oct-17 01:00N 44°49' E 020°30'0 0.0
2017-Oct-17 00:31N 44°49' E 020°30'0 0.0
2017-Oct-17 00:01N 44°49' E 020°30'0 0.0
2017-Oct-16 23:30N 44°49' E 020°30'0 0.0
2017-Oct-16 23:00N 44°49' E 020°30'0 0.0
2017-Oct-16 22:30N 44°49' E 020°30'0 0.0
2017-Oct-16 22:01N 44°49' E 020°30'0 0.0
2017-Oct-16 21:30N 44°49' E 020°30'0 0.0
2017-Oct-16 21:00N 44°49' E 020°30'0 0.0
2017-Oct-16 20:30N 44°49' E 020°30'0 0.0
2017-Oct-16 20:00N 44°49' E 020°30'0 0.0
2017-Oct-16 19:30N 44°49' E 020°30'0 0.0
2017-Oct-16 19:00N 44°49' E 020°30'0 0.0
2017-Oct-16 18:30N 44°49' E 020°30'0 0.0
2017-Oct-16 18:01N 44°49' E 020°30'0 0.0
2017-Oct-16 17:30N 44°49' E 020°30'0 0.0
2017-Oct-16 17:01N 44°49' E 020°30'0 0.0
2017-Oct-16 16:30N 44°49' E 020°30'0 0.0
2017-Oct-16 16:00N 44°49' E 020°30'0 0.0
2017-Oct-16 15:30N 44°49' E 020°30'0 0.0
2017-Oct-16 15:00N 44°49' E 020°30'0 0.0
2017-Oct-16 14:00N 44°49' E 020°30'0 0.0
2017-Oct-16 13:31N 44°49' E 020°30'0 0.0
2017-Oct-16 13:00N 44°49' E 020°30'0 0.0
2017-Oct-16 12:30N 44°49' E 020°30'0 0.0
2017-Oct-16 11:58N 44°49' E 020°30'0 0.0
2017-Oct-16 11:30N 44°49' E 020°30'0 0.0
2017-Oct-16 11:00N 44°49' E 020°30'0 0.0
2017-Oct-16 10:30N 44°49' E 020°30'0 0.0
2017-Oct-16 10:01N 44°49' E 020°30'0 0.0
2017-Oct-16 09:30N 44°49' E 020°30'0 0.0
2017-Oct-16 09:00N 44°49' E 020°30'0 0.0
2017-Oct-16 08:31N 44°49' E 020°30'0 0.0
2017-Oct-16 08:00N 44°49' E 020°30'0 0.0
2017-Oct-16 07:30N 44°49' E 020°30'0 0.0
2017-Oct-16 07:00N 44°49' E 020°30'0 0.0
2017-Oct-16 06:31N 44°49' E 020°30'0 0.0
2017-Oct-16 06:00N 44°49' E 020°30'0 0.0
2017-Oct-16 05:31N 44°49' E 020°30'0 0.0
2017-Oct-16 05:01N 44°49' E 020°30'0 0.0
2017-Oct-16 04:31N 44°49' E 020°30'0 0.0
2017-Oct-16 04:01N 44°49' E 020°30'0 0.0
2017-Oct-16 03:31N 44°49' E 020°30'0 0.0
2017-Oct-16 03:00N 44°49' E 020°30'0 0.0
2017-Oct-16 02:31N 44°49' E 020°30'0 0.0
2017-Oct-16 02:00N 44°49' E 020°30'0 0.0
2017-Oct-16 01:30N 44°49' E 020°30'0 0.0
2017-Oct-16 01:00N 44°49' E 020°30'0 0.0
2017-Oct-16 00:30N 44°49' E 020°30'0 0.0
2017-Oct-16 00:01N 44°49' E 020°30'0 0.0
2017-Oct-15 23:30N 44°49' E 020°30'0 0.0
2017-Oct-15 23:00N 44°49' E 020°30'0 0.0
2017-Oct-15 22:31N 44°49' E 020°30'0 0.0
2017-Oct-15 22:00N 44°49' E 020°30'0 0.0
2017-Oct-15 21:30N 44°49' E 020°30'0 0.0
2017-Oct-15 21:01N 44°49' E 020°30'1 1.5
2017-Oct-15 20:31N 44°50' E 020°32'1 2.6
2017-Oct-15 20:01N 44°50' E 020°33'1 2.8
2017-Oct-15 19:30N 44°51' E 020°35'1 2.7
2017-Oct-15 19:00N 44°51' E 020°37'1 2.7
2017-Oct-15 18:31N 44°50' E 020°38'1 2.7
2017-Oct-15 18:00N 44°49' E 020°39'1 3.0
2017-Oct-15 17:30N 44°48' E 020°38'1 2.9
2017-Oct-15 17:00N 44°46' E 020°38'1 2.7
2017-Oct-15 16:30N 44°45' E 020°39'1 2.9
2017-Oct-15 16:01N 44°44' E 020°40'1 3.0
2017-Oct-15 15:31N 44°43' E 020°41'1 2.9
2017-Oct-15 15:01N 44°42' E 020°43'3 2.8
2017-Oct-15 14:00N 44°40' E 020°46'1 2.9
2017-Oct-15 13:30N 44°40' E 020°48'1 2.8
2017-Oct-15 13:00N 44°40' E 020°49'1 3.0
2017-Oct-15 12:30N 44°40' E 020°52'1 2.8
2017-Oct-15 12:01N 44°40' E 020°54'1 2.8
2017-Oct-15 11:30N 44°40' E 020°55'1 2.9
2017-Oct-15 11:01N 44°42' E 020°57'1 2.9
2017-Oct-15 10:31N 44°43' E 020°58'1 2.8
2017-Oct-15 10:01N 44°43' E 021°00'1 2.8
2017-Oct-15 09:31N 44°43' E 021°02'1 2.9
2017-Oct-15 09:00N 44°43' E 021°04'1 2.9
2017-Oct-15 08:30N 44°43' E 021°06'1 2.8
2017-Oct-15 08:01N 44°44' E 021°08'2 3.0
2017-Oct-15 07:30N 44°45' E 021°10'1 1.6
2017-Oct-15 07:00N 44°46' E 021°10'0 0.0
2017-Oct-15 06:30N 44°46' E 021°10'0 0.0
2017-Oct-15 06:00N 44°46' E 021°10'0 0.0
2017-Oct-15 05:26N 44°46' E 021°10'0 0.0
2017-Oct-15 05:00N 44°46' E 021°10'0 0.0
2017-Oct-15 04:30N 44°46' E 021°10'0 0.0
2017-Oct-14 20:03N 44°46' E 021°10'0 0.0
2017-Oct-14 20:00N 44°46' E 021°10'1 1.0
2017-Oct-14 19:31N 44°45' E 021°10'2 4.9
2017-Oct-14 19:01N 44°44' E 021°07'3 5.1
2017-Oct-14 18:31N 44°43' E 021°04'3 5.2
2017-Oct-14 18:01N 44°43' E 020°60'3 5.2
2017-Oct-14 17:31N 44°42' E 020°57'2 4.1
2017-Oct-14 17:00N 44°40' E 020°55'0 0.0
2017-Oct-14 16:30N 44°40' E 020°55'0 0.0
2017-Oct-14 16:00N 44°40' E 020°55'1 2.5
2017-Oct-14 15:31N 44°40' E 020°53'3 5.6
2017-Oct-14 15:01N 44°39' E 020°50'3 5.1
2017-Oct-14 14:31N 44°40' E 020°46'2 5.0
2017-Oct-14 14:01N 44°41' E 020°43'3 5.0
2017-Oct-14 13:31N 44°43' E 020°41'3 5.0
2017-Oct-14 13:00N 44°45' E 020°38'3 5.0
2017-Oct-14 12:30N 44°47' E 020°38'3 5.0
2017-Oct-14 12:01N 44°50' E 020°39'2 4.9
2017-Oct-14 11:30N 44°51' E 020°36'3 5.1
2017-Oct-14 11:00N 44°50' E 020°33'2 5.0
2017-Oct-14 10:31N 44°50' E 020°30'3 5.1
2017-Oct-14 10:01N 44°51' E 020°26'3 5.6
2017-Oct-14 09:30N 44°52' E 020°23'3 5.6
2017-Oct-14 09:01N 44°54' E 020°21'3 5.6
2017-Oct-14 08:30N 44°56' E 020°18'3 5.6
2017-Oct-14 08:00N 44°59' E 020°18'3 5.4
2017-Oct-14 07:30N 45°00' E 020°21'3 5.2
2017-Oct-14 07:00N 45°03' E 020°21'3 5.8
2017-Oct-14 06:30N 45°05' E 020°19'3 5.9
2017-Oct-14 06:00N 45°08' E 020°17'2 4.4
2017-Oct-14 05:30N 45°10' E 020°17'2 4.0
2017-Oct-14 05:00N 45°11' E 020°19'0 0.2
2017-Oct-14 04:30N 45°11' E 020°19'0 0.0
2017-Oct-14 04:01N 45°11' E 020°19'0 0.0
2017-Oct-14 03:30N 45°11' E 020°19'0 0.0
2017-Oct-14 03:01N 45°11' E 020°19'0 0.0
2017-Oct-14 02:30N 45°11' E 020°19'0 0.0
2017-Oct-14 02:00N 45°11' E 020°19'0 0.0
2017-Oct-14 01:30N 45°11' E 020°19'0 0.0
2017-Oct-14 01:00N 45°11' E 020°19'0 0.0
2017-Oct-14 00:31N 45°11' E 020°19'0 0.0
2017-Oct-14 00:01N 45°11' E 020°19'0 0.0
2017-Oct-13 23:31N 45°11' E 020°19'0 0.0
2017-Oct-13 23:00N 45°11' E 020°19'0 0.0
2017-Oct-13 22:31N 45°11' E 020°19'0 0.0
2017-Oct-13 22:01N 45°11' E 020°19'0 0.0
2017-Oct-13 21:30N 45°11' E 020°19'0 0.0
2017-Oct-13 21:01N 45°11' E 020°19'0 0.0
2017-Oct-13 20:30N 45°11' E 020°19'0 0.1
2017-Oct-13 20:01N 45°11' E 020°19'2 4.1
2017-Oct-13 19:29N 45°13' E 020°19'  
2017-Oct-10 12:04N 45°14' E 020°18'0 3.4
2017-Oct-10 11:59N 45°14' E 020°18'2 3.5
2017-Oct-10 11:30N 45°12' E 020°19'2 3.2
2017-Oct-10 11:00N 45°11' E 020°18'1 2.8
2017-Oct-10 10:30N 45°10' E 020°17'2 3.2
2017-Oct-10 10:00N 45°08' E 020°17'1 2.1
2017-Oct-10 09:30N 45°07' E 020°17'1 2.5
2017-Oct-10 09:00N 45°06' E 020°18'1 2.3
2017-Oct-10 08:30N 45°05' E 020°19'1 2.6
2017-Oct-10 08:00N 45°04' E 020°20'1 2.5
2017-Oct-10 07:30N 45°03' E 020°21'1 2.6
2017-Oct-10 07:00N 45°02' E 020°22'1 2.4
2017-Oct-10 06:30N 45°01' E 020°22'1 2.2
2017-Oct-10 06:00N 45°00' E 020°21'1 2.6
2017-Oct-10 05:30N 44°60' E 020°19'1 2.6
2017-Oct-10 05:00N 44°59' E 020°18'1 2.5
2017-Oct-10 04:30N 44°58' E 020°17'1 1.2
2017-Oct-10 04:01N 44°57' E 020°18'0 0.0
2017-Oct-10 03:31N 44°57' E 020°18'0 0.0
2017-Oct-10 03:00N 44°57' E 020°18'0 0.0
2017-Oct-10 02:31N 44°57' E 020°18'0 0.0
2017-Oct-10 02:01N 44°57' E 020°18'0 0.0
2017-Oct-10 01:30N 44°57' E 020°18'0 0.0
2017-Oct-10 01:01N 44°57' E 020°18'0 0.0
2017-Oct-10 00:31N 44°57' E 020°18'0 0.0
2017-Oct-10 00:01N 44°57' E 020°18'0 0.0
2017-Oct-09 23:31N 44°57' E 020°18'0 0.0
2017-Oct-09 23:01N 44°57' E 020°18'0 0.0
2017-Oct-09 22:31N 44°57' E 020°18'0 0.0
2017-Oct-09 22:01N 44°57' E 020°18'0 0.0
2017-Oct-09 21:31N 44°57' E 020°18'0 0.0
2017-Oct-09 21:01N 44°57' E 020°18'0 0.0
2017-Oct-09 20:31N 44°57' E 020°18'0 0.0
2017-Oct-09 20:01N 44°57' E 020°18'0 0.0
2017-Oct-09 19:31N 44°57' E 020°18'1 2.0
2017-Oct-09 19:01N 44°56' E 020°18'1 2.6
2017-Oct-09 18:30N 44°55' E 020°20'1 2.4
2017-Oct-09 18:00N 44°54' E 020°20'1 2.7
2017-Oct-09 17:30N 44°53' E 020°21'1 2.6
2017-Oct-09 17:01N 44°52' E 020°22'1 2.5
2017-Oct-09 16:30N 44°51' E 020°24'1 2.7
2017-Oct-09 16:00N 44°51' E 020°26'1 2.5
2017-Oct-09 15:30N 44°50' E 020°27'1 2.8
2017-Oct-09 15:00N 44°50' E 020°29'1 2.7
2017-Oct-09 14:31N 44°49' E 020°31'0 0.0
2017-Oct-09 14:01N 44°49' E 020°31'  

Dump ship's entire track history